createdAt,value
2019-04-07T00:00:45.287Z,10.50
2019-04-07T00:03:14.611Z,10.60
2019-04-07T00:05:43.970Z,10.60
2019-04-07T00:08:13.445Z,10.60
2019-04-07T00:10:43.415Z,10.50
2019-04-07T00:13:13.589Z,10.50
2019-04-07T00:15:44.201Z,10.30
2019-04-07T00:18:13.552Z,10.30
2019-04-07T00:20:42.889Z,10.20
2019-04-07T00:23:12.242Z,10.20
2019-04-07T00:25:41.600Z,10.10
2019-04-07T00:28:10.921Z,10.10
2019-04-07T00:30:40.262Z,10.10
2019-04-07T00:33:09.621Z,10.10
2019-04-07T00:35:39.020Z,10.10
2019-04-07T00:38:08.372Z,9.90
2019-04-07T00:40:38.208Z,9.80
2019-04-07T00:43:07.603Z,9.80
2019-04-07T00:45:36.996Z,9.70
2019-04-07T00:48:06.913Z,9.70
2019-04-07T00:50:36.309Z,9.60
2019-04-07T00:53:05.705Z,9.60
2019-04-07T00:55:35.149Z,9.60
2019-04-07T00:58:04.537Z,9.60
2019-04-07T01:00:35.693Z,9.60
2019-04-07T01:03:05.117Z,9.50
2019-04-07T01:05:38.568Z,9.40
2019-04-07T01:08:05.477Z,9.40
2019-04-07T01:10:35.408Z,9.30
2019-04-07T01:13:05.302Z,9.20
2019-04-07T01:15:35.222Z,9.20
2019-04-07T01:18:05.363Z,9.20
2019-04-07T01:20:35.901Z,9.10
2019-04-07T01:23:05.599Z,9.00
2019-04-07T01:25:34.923Z,9.00
2019-04-07T01:28:04.463Z,9.10
2019-04-07T01:30:33.955Z,9.00
2019-04-07T01:33:03.317Z,9.10
2019-04-07T01:35:44.431Z,9.00
2019-04-07T01:38:04.948Z,8.90
2019-04-07T01:40:34.460Z,8.90
2019-04-07T01:43:08.498Z,8.90
2019-04-07T01:45:43.450Z,8.90
2019-04-07T01:48:17.239Z,8.90
2019-04-07T01:50:48.312Z,8.80
2019-04-07T01:53:35.600Z,8.70
2019-04-07T01:56:10.798Z,8.50
2019-04-07T01:58:58.289Z,8.50
2019-04-07T02:01:32.689Z,8.50
2019-04-07T02:04:06.825Z,8.30
2019-04-07T02:06:40.948Z,8.40
2019-04-07T02:09:27.058Z,8.30
2019-04-07T02:12:14.741Z,8.40
2019-04-07T02:14:55.024Z,8.50
2019-04-07T02:17:26.365Z,8.40
2019-04-07T02:20:06.805Z,8.50
2019-04-07T02:22:37.855Z,8.50
2019-04-07T02:25:25.157Z,8.40
2019-04-07T02:27:58.852Z,8.50
2019-04-07T02:30:49.581Z,8.40
2019-04-07T02:33:37.208Z,8.40
2019-04-07T02:36:20.951Z,8.40
2019-04-07T02:38:40.989Z,8.30
2019-04-07T02:41:30.604Z,8.40
2019-04-07T02:44:02.546Z,8.30
2019-04-07T02:46:33.821Z,8.30
2019-04-07T02:49:10.888Z,8.30
2019-04-07T02:51:45.755Z,8.30
2019-04-07T02:54:33.145Z,8.30
2019-04-07T02:57:04.146Z,8.30
2019-04-07T02:59:42.898Z,8.20
2019-04-07T03:02:26.023Z,8.10
2019-04-07T03:04:57.456Z,8.00
2019-04-07T03:07:29.106Z,8.00
2019-04-07T03:10:00.350Z,8.00
2019-04-07T03:12:34.307Z,8.10
2019-04-07T03:15:11.951Z,8.20
2019-04-07T03:17:52.152Z,8.00
2019-04-07T03:20:25.099Z,8.00
2019-04-07T03:23:05.218Z,8.00
2019-04-07T03:25:51.591Z,7.90
2019-04-07T03:28:28.997Z,7.80
2019-04-07T03:31:01.843Z,7.80
2019-04-07T03:33:40.014Z,7.80
2019-04-07T03:36:28.512Z,7.90
2019-04-07T03:38:59.612Z,7.90
2019-04-07T03:41:49.238Z,7.90
2019-04-07T03:44:29.582Z,7.70
2019-04-07T03:47:01.500Z,7.50
2019-04-07T03:49:35.397Z,7.60
2019-04-07T03:52:22.784Z,7.50
2019-04-07T03:55:06.630Z,7.50
2019-04-07T03:57:37.655Z,7.50
2019-04-07T04:00:14.488Z,7.70
2019-04-07T04:02:57.473Z,7.50
2019-04-07T04:05:31.363Z,7.50
2019-04-07T04:08:11.561Z,7.50
2019-04-07T04:10:48.484Z,7.40
2019-04-07T04:13:20.160Z,7.30
2019-04-07T04:15:51.588Z,7.40
2019-04-07T04:18:21.105Z,7.30
2019-04-07T04:20:50.465Z,7.20
2019-04-07T04:23:19.973Z,7.20
2019-04-07T04:25:49.476Z,7.20
2019-04-07T04:28:19.369Z,7.30
2019-04-07T04:30:50.563Z,7.20
2019-04-07T04:33:20.224Z,7.20
2019-04-07T04:35:51.502Z,7.30
2019-04-07T04:38:21.127Z,7.40
2019-04-07T04:40:50.663Z,7.40
2019-04-07T04:43:20.179Z,7.30
2019-04-07T04:45:50.411Z,7.40
2019-04-07T04:48:20.012Z,7.30
2019-04-07T04:50:50.316Z,7.30
2019-04-07T04:53:19.853Z,7.20
2019-04-07T04:55:49.500Z,7.10
2019-04-07T04:58:19.425Z,7.20
2019-04-07T05:00:50.752Z,7.30
2019-04-07T05:03:20.335Z,7.30
2019-04-07T05:05:49.673Z,7.40
2019-04-07T05:08:19.002Z,7.60
2019-04-07T05:10:49.396Z,8.00
2019-04-07T05:13:19.021Z,8.40
2019-04-07T05:15:49.027Z,8.80
2019-04-07T05:18:18.425Z,9.10
2019-04-07T05:20:47.761Z,9.50
2019-04-07T05:23:18.002Z,10.00
2019-04-07T05:25:48.095Z,10.40
2019-04-07T05:28:17.643Z,10.70
2019-04-07T05:30:47.024Z,10.90
2019-04-07T05:33:16.564Z,10.90
2019-04-07T05:35:46.069Z,11.00
2019-04-07T05:38:15.896Z,11.30
2019-04-07T05:40:45.311Z,11.60
2019-04-07T05:43:15.089Z,12.10
2019-04-07T05:45:45.463Z,12.50
2019-04-07T05:48:17.316Z,12.70
2019-04-07T05:50:47.288Z,12.90
2019-04-07T05:53:17.739Z,12.90
2019-04-07T05:55:47.561Z,13.20
2019-04-07T05:58:16.987Z,13.50
2019-04-07T06:00:48.009Z,13.60
2019-04-07T06:03:17.668Z,14.10
2019-04-07T06:05:48.281Z,14.40
2019-04-07T06:08:27.039Z,14.50
2019-04-07T06:10:49.174Z,14.80
2019-04-07T06:13:19.117Z,15.20
2019-04-07T06:15:49.355Z,15.80
2019-04-07T06:18:19.547Z,16.00
2019-04-07T06:20:49.799Z,16.10
2019-04-07T06:23:22.142Z,16.30
2019-04-07T06:25:51.086Z,16.80
2019-04-07T06:28:21.426Z,17.10
2019-04-07T06:30:50.760Z,17.20
2019-04-07T06:33:20.109Z,17.20
2019-04-07T06:35:49.917Z,17.50
2019-04-07T06:38:30.312Z,19.00
2019-04-07T06:40:55.070Z,18.70
2019-04-07T06:43:22.231Z,20.30
2019-04-07T06:45:54.902Z,19.50
2019-04-07T06:48:24.517Z,19.10
2019-04-07T06:51:01.737Z,19.30
2019-04-07T06:53:35.347Z,18.50
2019-04-07T06:56:12.022Z,19.70
2019-04-07T06:58:55.631Z,20.40
2019-04-07T07:01:43.769Z,20.40
2019-04-07T07:04:24.397Z,21.60
2019-04-07T07:06:58.890Z,23.20
2019-04-07T07:09:30.613Z,25.00
2019-04-07T07:12:05.044Z,25.40
2019-04-07T07:14:44.948Z,25.80
2019-04-07T07:17:16.993Z,22.60
2019-04-07T07:20:02.262Z,23.50
2019-04-07T07:22:46.731Z,24.20
2019-04-07T07:25:15.773Z,24.70
2019-04-07T07:27:46.070Z,25.50
2019-04-07T07:30:18.402Z,26.10
2019-04-07T07:32:47.378Z,22.80
2019-04-07T07:35:16.855Z,23.30
2019-04-07T07:37:46.672Z,22.70
2019-04-07T07:40:18.323Z,23.30
2019-04-07T07:42:49.665Z,23.40
2019-04-07T07:45:18.663Z,23.00
2019-04-07T07:47:51.298Z,23.50
2019-04-07T07:50:20.056Z,23.90
2019-04-07T07:52:53.358Z,24.10
2019-04-07T07:55:22.145Z,24.90
2019-04-07T07:57:55.518Z,23.70
2019-04-07T08:00:22.647Z,25.10
2019-04-07T08:02:53.462Z,25.10
2019-04-07T08:05:23.799Z,24.40
2019-04-07T08:07:54.065Z,24.90
2019-04-07T08:10:25.356Z,25.10
2019-04-07T08:12:54.708Z,24.60
2019-04-07T08:15:29.695Z,23.50
2019-04-07T08:17:55.084Z,24.60
2019-04-07T08:20:24.593Z,25.10
2019-04-07T08:22:54.045Z,24.10
2019-04-07T08:25:24.823Z,24.50
2019-04-07T08:27:55.189Z,23.70
2019-04-07T08:30:26.080Z,23.40
2019-04-07T08:32:58.632Z,23.90
2019-04-07T08:35:26.547Z,25.20
2019-04-07T08:37:56.623Z,25.10
2019-04-07T08:40:26.360Z,25.10
2019-04-07T08:42:56.128Z,25.70
2019-04-07T08:45:26.715Z,24.90
2019-04-07T08:47:56.740Z,24.80
2019-04-07T08:50:28.556Z,24.40
2019-04-07T08:52:57.848Z,25.30
2019-04-07T08:55:28.435Z,25.70
2019-04-07T08:58:00.135Z,25.80
2019-04-07T09:00:30.448Z,26.00
2019-04-07T09:03:04.928Z,26.20
2019-04-07T09:05:31.302Z,24.10
2019-04-07T09:08:05.575Z,22.80
2019-04-07T09:10:35.394Z,21.80
2019-04-07T09:13:08.482Z,20.60
2019-04-07T09:15:40.826Z,20.00
2019-04-07T09:18:14.169Z,19.70
2019-04-07T09:20:46.133Z,19.20
2019-04-07T09:23:17.497Z,18.70
2019-04-07T09:26:03.923Z,18.80
2019-04-07T09:28:34.891Z,19.00
2019-04-07T09:31:18.602Z,19.20
2019-04-07T09:33:56.138Z,19.20
2019-04-07T09:36:32.364Z,19.10
2019-04-07T09:39:20.902Z,19.10
2019-04-07T09:42:10.176Z,19.30
2019-04-07T09:44:42.226Z,19.40
2019-04-07T09:47:28.290Z,19.30
2019-04-07T09:50:11.350Z,19.30
2019-04-07T09:52:49.176Z,19.40
2019-04-07T09:55:36.755Z,19.30
2019-04-07T09:58:10.916Z,19.50
2019-04-07T10:00:41.656Z,19.60
2019-04-07T10:03:16.327Z,19.60
2019-04-07T10:05:47.487Z,19.50
2019-04-07T10:08:19.496Z,19.70
2019-04-07T10:10:54.789Z,19.50
2019-04-07T10:13:25.866Z,19.50
2019-04-07T10:15:57.407Z,19.40
2019-04-07T10:18:28.597Z,19.20
2019-04-07T10:21:05.468Z,19.20
2019-04-07T10:23:40.396Z,19.50
2019-04-07T10:26:17.894Z,19.60
2019-04-07T10:29:01.788Z,19.70
2019-04-07T10:31:33.606Z,19.80
2019-04-07T10:34:05.179Z,19.80
2019-04-07T10:36:36.332Z,19.60
2019-04-07T10:39:24.144Z,19.60
2019-04-07T10:42:12.455Z,19.80
2019-04-07T10:44:43.649Z,20.00
2019-04-07T10:47:26.872Z,20.10
2019-04-07T10:50:14.391Z,20.00
2019-04-07T10:52:48.314Z,19.80
2019-04-07T10:55:20.619Z,19.90
2019-04-07T10:57:54.819Z,19.90
2019-04-07T11:00:31.999Z,19.70
2019-04-07T11:03:12.109Z,19.90
2019-04-07T11:05:46.974Z,19.90
2019-04-07T11:08:20.716Z,19.90
2019-04-07T11:11:07.919Z,19.80
2019-04-07T11:13:45.703Z,19.80
2019-04-07T11:16:29.523Z,20.00
2019-04-07T11:19:09.896Z,20.10
2019-04-07T11:21:44.003Z,20.10
2019-04-07T11:24:31.632Z,19.90
2019-04-07T11:27:19.136Z,20.00
2019-04-07T11:29:53.885Z,20.20
2019-04-07T11:32:24.992Z,20.40
2019-04-07T11:35:12.568Z,20.40
2019-04-07T11:37:47.275Z,20.50
2019-04-07T11:40:24.659Z,20.50
2019-04-07T11:43:11.647Z,20.70
2019-04-07T11:45:56.153Z,20.60
2019-04-07T11:48:20.998Z,20.60
2019-04-07T11:50:52.224Z,20.70
2019-04-07T11:53:24.172Z,20.70
2019-04-07T11:56:11.616Z,20.80
2019-04-07T11:58:48.744Z,20.80
2019-04-07T12:01:29.263Z,20.60
2019-04-07T12:04:18.489Z,20.50
2019-04-07T12:06:56.404Z,20.40
2019-04-07T12:09:28.266Z,20.60
2019-04-07T12:11:59.359Z,20.60
2019-04-07T12:14:33.923Z,20.60
2019-04-07T12:17:14.863Z,20.40
2019-04-07T12:19:46.321Z,20.30
2019-04-07T12:22:18.308Z,20.30
2019-04-07T12:25:06.620Z,20.20
2019-04-07T12:27:45.174Z,19.90
2019-04-07T12:30:16.576Z,19.80
2019-04-07T12:32:51.778Z,19.80
2019-04-07T12:35:35.409Z,19.90
2019-04-07T12:38:15.472Z,20.10
2019-04-07T12:40:51.071Z,20.30
2019-04-07T12:43:34.055Z,20.50
2019-04-07T12:46:14.492Z,20.60
2019-04-07T12:49:05.379Z,20.40
2019-04-07T12:51:41.250Z,20.40
2019-04-07T12:54:17.965Z,20.60
2019-04-07T12:56:52.405Z,20.50
2019-04-07T12:59:32.562Z,20.60
2019-04-07T13:02:08.148Z,20.70
2019-04-07T13:04:55.999Z,20.60
2019-04-07T13:07:39.300Z,20.60
2019-04-07T13:10:10.791Z,20.90
2019-04-07T13:12:42.235Z,20.80
2019-04-07T13:15:26.022Z,20.80
2019-04-07T13:18:10.596Z,20.90
2019-04-07T13:20:50.298Z,20.90
2019-04-07T13:23:23.352Z,21.00
2019-04-07T13:25:57.895Z,21.10
2019-04-07T13:28:37.777Z,21.00
2019-04-07T13:31:14.614Z,20.90
2019-04-07T13:34:03.074Z,21.00
2019-04-07T13:36:40.914Z,21.10
2019-04-07T13:39:17.966Z,21.10
2019-04-07T13:42:03.999Z,21.00
2019-04-07T13:44:49.940Z,21.00
2019-04-07T13:47:26.804Z,21.00
2019-04-07T13:50:00.701Z,20.90
2019-04-07T13:52:36.879Z,20.70
2019-04-07T13:55:16.492Z,20.70
2019-04-07T13:58:04.410Z,20.70
2019-04-07T14:00:52.061Z,20.70
2019-04-07T14:03:29.170Z,20.80
2019-04-07T14:06:06.873Z,20.60
2019-04-07T14:08:57.225Z,20.60
2019-04-07T14:11:52.445Z,20.70
2019-04-07T14:14:14.727Z,20.90
2019-04-07T14:16:46.419Z,21.00
2019-04-07T14:19:17.830Z,21.00
2019-04-07T14:21:49.353Z,21.10
2019-04-07T14:24:39.366Z,21.00
2019-04-07T14:27:13.172Z,21.00
2019-04-07T14:29:47.123Z,21.10
2019-04-07T14:32:23.956Z,21.20
2019-04-07T14:35:07.491Z,21.20
2019-04-07T14:37:39.336Z,21.30
2019-04-07T14:40:13.418Z,21.30
2019-04-07T14:42:46.022Z,21.30
2019-04-07T14:45:17.180Z,21.30
2019-04-07T14:47:54.583Z,21.10
2019-04-07T14:50:26.427Z,21.00
2019-04-07T14:53:00.797Z,21.20
2019-04-07T14:55:34.687Z,21.20
2019-04-07T14:58:19.057Z,21.10
2019-04-07T15:01:00.299Z,21.20
2019-04-07T15:03:28.631Z,21.00
2019-04-07T15:05:59.339Z,21.10
2019-04-07T15:08:47.478Z,21.30
2019-04-07T15:11:19.416Z,21.20
2019-04-07T15:13:49.458Z,21.20
2019-04-07T15:16:19.657Z,21.20
2019-04-07T15:18:49.088Z,21.10
2019-04-07T15:21:18.860Z,20.80
2019-04-07T15:23:48.253Z,20.60
2019-04-07T15:26:18.022Z,20.30
2019-04-07T15:28:47.444Z,20.10
2019-04-07T15:31:18.345Z,20.10
2019-04-07T15:33:47.896Z,20.30
2019-04-07T15:36:18.702Z,20.40
2019-04-07T15:38:48.664Z,20.50
2019-04-07T15:41:19.534Z,20.40
2019-04-07T15:43:49.965Z,20.40
2019-04-07T15:46:19.724Z,20.30
2019-04-07T15:48:49.818Z,20.20
2019-04-07T15:51:19.619Z,20.20
2019-04-07T15:53:51.588Z,20.20
2019-04-07T15:56:20.871Z,20.10
2019-04-07T15:58:51.527Z,20.20
2019-04-07T16:01:21.728Z,20.10
2019-04-07T16:03:54.490Z,20.20
2019-04-07T16:06:23.426Z,20.20
2019-04-07T16:08:53.226Z,20.00
2019-04-07T16:11:25.647Z,19.90
2019-04-07T16:13:54.072Z,19.90
2019-04-07T16:16:27.488Z,19.80
2019-04-07T16:18:54.703Z,19.80
2019-04-07T16:21:24.184Z,19.70
2019-04-07T16:23:54.330Z,19.70
2019-04-07T16:26:24.631Z,19.70
2019-04-07T16:28:54.086Z,19.60
2019-04-07T16:31:25.449Z,19.60
2019-04-07T16:33:54.531Z,19.50
2019-04-07T16:36:25.474Z,19.50
2019-04-07T16:38:55.022Z,19.40
2019-04-07T16:41:24.833Z,19.30
2019-04-07T16:43:54.959Z,19.30
2019-04-07T16:46:24.978Z,19.30
2019-04-07T16:48:55.644Z,19.20
2019-04-07T16:51:27.694Z,19.10
2019-04-07T16:53:56.391Z,19.10
2019-04-07T16:56:26.599Z,19.00
2019-04-07T16:58:56.635Z,18.80
2019-04-07T17:01:26.653Z,18.80
2019-04-07T17:03:59.244Z,18.70
2019-04-07T17:06:33.478Z,18.60
2019-04-07T17:09:00.433Z,18.50
2019-04-07T17:11:32.320Z,18.50
2019-04-07T17:14:02.913Z,18.40
2019-04-07T17:16:33.433Z,18.40
2019-04-07T17:19:03.011Z,18.30
2019-04-07T17:21:33.085Z,18.30
2019-04-07T17:24:04.049Z,18.90
2019-04-07T17:26:35.386Z,19.10
2019-04-07T17:29:05.076Z,18.60
2019-04-07T17:31:34.782Z,18.30
2019-04-07T17:34:07.378Z,17.90
2019-04-07T17:36:36.478Z,17.70
2019-04-07T17:39:24.729Z,17.40
2019-04-07T17:41:55.991Z,17.30
2019-04-07T17:44:29.744Z,17.10
2019-04-07T17:47:17.808Z,17.00
2019-04-07T17:50:07.112Z,16.90
2019-04-07T17:52:41.344Z,16.80
2019-04-07T17:55:28.921Z,16.80
2019-04-07T17:58:17.468Z,16.70
2019-04-07T18:00:50.526Z,16.50
2019-04-07T18:03:31.232Z,16.50
2019-04-07T18:06:18.129Z,16.30
2019-04-07T18:08:49.589Z,16.20
2019-04-07T18:11:23.531Z,16.10
2019-04-07T18:13:59.607Z,16.00
2019-04-07T18:16:30.651Z,15.90
2019-04-07T18:19:16.769Z,15.80
2019-04-07T18:21:52.786Z,15.80
2019-04-07T18:24:23.356Z,15.70
2019-04-07T18:27:14.462Z,15.50
2019-04-07T18:29:44.882Z,15.70
2019-04-07T18:32:22.078Z,15.50
2019-04-07T18:35:09.699Z,15.40
2019-04-07T18:37:57.863Z,15.50
2019-04-07T18:40:45.271Z,15.40
2019-04-07T18:43:20.513Z,15.20
2019-04-07T18:46:01.101Z,15.00
2019-04-07T18:48:32.171Z,15.00
2019-04-07T18:51:03.154Z,14.90
2019-04-07T18:53:34.113Z,14.80
2019-04-07T18:56:09.828Z,14.70
2019-04-07T18:58:42.722Z,14.60
2019-04-07T19:01:29.554Z,14.50
2019-04-07T19:04:00.523Z,14.40
2019-04-07T19:06:31.524Z,14.30
2019-04-07T19:09:14.387Z,14.40
2019-04-07T19:12:05.849Z,14.40
2019-04-07T19:14:42.417Z,14.30
2019-04-07T19:17:05.779Z,14.20
2019-04-07T19:19:52.592Z,14.20
2019-04-07T19:22:23.652Z,14.10
2019-04-07T19:24:54.629Z,14.30
2019-04-07T19:27:42.664Z,14.20
2019-04-07T19:30:17.451Z,14.00
2019-04-07T19:33:07.771Z,14.10
2019-04-07T19:35:44.872Z,13.90
2019-04-07T19:38:23.347Z,13.90
2019-04-07T19:41:03.270Z,14.00
2019-04-07T19:43:46.439Z,13.90
2019-04-07T19:46:26.490Z,13.80
2019-04-07T19:49:15.330Z,13.70
2019-04-07T19:51:50.919Z,13.80
2019-04-07T19:54:32.000Z,13.80
2019-04-07T19:57:15.422Z,13.60
2019-04-07T19:59:49.229Z,13.40
2019-04-07T20:02:20.212Z,13.40
2019-04-07T20:04:57.050Z,13.60
2019-04-07T20:07:31.812Z,13.50
2019-04-07T20:10:06.565Z,13.60
2019-04-07T20:12:54.091Z,13.50
2019-04-07T20:15:43.421Z,13.40
2019-04-07T20:18:24.525Z,13.40
2019-04-07T20:21:02.907Z,13.30
2019-04-07T20:23:46.028Z,13.30
2019-04-07T20:26:32.674Z,13.20
2019-04-07T20:29:06.947Z,13.20
2019-04-07T20:31:40.732Z,13.00
2019-04-07T20:34:30.805Z,12.90
2019-04-07T20:37:01.887Z,12.90
2019-04-07T20:39:47.785Z,12.90
2019-04-07T20:42:19.856Z,13.10
2019-04-07T20:45:06.611Z,13.10
2019-04-07T20:47:33.056Z,13.10
2019-04-07T20:50:22.492Z,13.10
2019-04-07T20:53:12.435Z,13.00
2019-04-07T20:55:44.127Z,12.90
2019-04-07T20:58:25.409Z,12.90
2019-04-07T21:01:17.633Z,12.80
2019-04-07T21:04:01.398Z,12.70
2019-04-07T21:06:35.803Z,12.70
2019-04-07T21:09:08.842Z,12.60
2019-04-07T21:11:43.891Z,12.60
2019-04-07T21:14:29.071Z,12.60
2019-04-07T21:17:12.004Z,12.60
2019-04-07T21:19:58.228Z,12.60
2019-04-07T21:22:34.892Z,12.60
2019-04-07T21:25:13.791Z,12.60
2019-04-07T21:27:57.138Z,12.50
2019-04-07T21:30:34.001Z,12.50
2019-04-07T21:33:11.159Z,12.40
2019-04-07T21:35:42.657Z,12.30
2019-04-07T21:38:20.822Z,12.20
2019-04-07T21:41:06.131Z,12.20
2019-04-07T21:43:40.345Z,12.00
2019-04-07T21:46:15.344Z,11.90
2019-04-07T21:48:55.452Z,11.80
2019-04-07T21:51:46.020Z,11.80
2019-04-07T21:54:22.554Z,11.70
2019-04-07T21:57:09.974Z,11.70
2019-04-07T21:59:41.283Z,11.70
2019-04-07T22:02:13.625Z,11.70
2019-04-07T22:04:50.665Z,11.50
2019-04-07T22:07:38.250Z,11.40
2019-04-07T22:10:13.684Z,11.40
2019-04-07T22:12:44.248Z,11.40
2019-04-07T22:15:14.290Z,11.60
2019-04-07T22:17:45.718Z,11.70
2019-04-07T22:20:18.819Z,11.80
2019-04-07T22:22:47.126Z,11.80
2019-04-07T22:25:20.588Z,11.80
2019-04-07T22:27:52.632Z,11.70
2019-04-07T22:30:21.991Z,11.60
2019-04-07T22:32:52.852Z,11.50
2019-04-07T22:35:22.477Z,11.40
2019-04-07T22:37:52.651Z,11.30
2019-04-07T22:40:25.545Z,11.20
2019-04-07T22:42:54.924Z,11.10
2019-04-07T22:45:27.879Z,11.10
2019-04-07T22:47:55.315Z,11.00
2019-04-07T22:50:25.298Z,10.90
2019-04-07T22:52:55.354Z,10.90
2019-04-07T22:55:24.927Z,10.80
2019-04-07T22:57:54.328Z,10.70
2019-04-07T23:00:26.699Z,10.70
2019-04-07T23:02:56.432Z,10.60
2019-04-07T23:05:25.859Z,10.50
2019-04-07T23:07:56.479Z,10.50
2019-04-07T23:10:25.808Z,10.40
2019-04-07T23:12:55.322Z,10.40
2019-04-07T23:15:37.322Z,10.40
2019-04-07T23:17:57.617Z,10.30
2019-04-07T23:20:27.146Z,10.30
2019-04-07T23:22:56.564Z,10.30
2019-04-07T23:25:26.015Z,10.20
2019-04-07T23:27:56.340Z,10.20
2019-04-07T23:30:27.840Z,10.10
2019-04-07T23:32:57.800Z,10.00
2019-04-07T23:35:27.208Z,10.00
2019-04-07T23:37:57.338Z,9.90
2019-04-07T23:40:26.934Z,9.90
2019-04-07T23:42:57.186Z,9.90
2019-04-07T23:45:27.399Z,9.80
2019-04-07T23:47:56.971Z,9.70
2019-04-07T23:50:27.243Z,9.70
2019-04-07T23:52:58.239Z,9.60
2019-04-07T23:55:27.593Z,9.40
2019-04-07T23:57:56.920Z,9.30
